sensor_id;sensor_type;location;lat;lon;timestamp;P1;durP1;ratioP1;P2;durP2;ratioP2
60492;SDS011;46341;51.290;-2.474;2022-12-19T00:01:22;2.77;;;1.07;;
60492;SDS011;46341;51.290;-2.474;2022-12-19T00:03:48;2.22;;;1.15;;
60492;SDS011;46341;51.290;-2.474;2022-12-19T00:06:15;6.50;;;1.27;;
60492;SDS011;46341;51.290;-2.474;2022-12-19T00:08:42;2.78;;;1.05;;
60492;SDS011;46341;51.290;-2.474;2022-12-19T00:11:09;4.28;;;1.35;;
60492;SDS011;46341;51.290;-2.474;2022-12-19T00:13:36;2.87;;;1.03;;
60492;SDS011;46341;51.290;-2.474;2022-12-19T00:16:07;3.75;;;1.25;;
60492;SDS011;46341;51.290;-2.474;2022-12-19T00:18:34;8.25;;;1.40;;
60492;SDS011;46341;51.290;-2.474;2022-12-19T00:21:01;6.15;;;1.45;;
60492;SDS011;46341;51.290;-2.474;2022-12-19T00:23:29;8.25;;;2.40;;
60492;SDS011;46341;51.290;-2.474;2022-12-19T00:28:22;7.70;;;1.50;;
60492;SDS011;46341;51.290;-2.474;2022-12-19T00:30:49;6.78;;;1.63;;
60492;SDS011;46341;51.290;-2.474;2022-12-19T00:33:18;7.93;;;1.88;;
60492;SDS011;46341;51.290;-2.474;2022-12-19T00:35:44;7.35;;;1.75;;
60492;SDS011;46341;51.290;-2.474;2022-12-19T00:38:11;7.88;;;1.48;;
60492;SDS011;46341;51.290;-2.474;2022-12-19T00:40:37;4.03;;;1.40;;
60492;SDS011;46341;51.290;-2.474;2022-12-19T00:43:03;4.85;;;0.80;;
60492;SDS011;46341;51.290;-2.474;2022-12-19T00:45:30;5.50;;;1.50;;
60492;SDS011;46341;51.290;-2.474;2022-12-19T00:47:56;7.30;;;1.80;;
60492;SDS011;46341;51.290;-2.474;2022-12-19T00:50:22;4.85;;;1.42;;
60492;SDS011;46341;51.290;-2.474;2022-12-19T00:52:49;6.35;;;1.33;;
60492;SDS011;46341;51.290;-2.474;2022-12-19T00:55:15;9.00;;;2.40;;
60492;SDS011;46341;51.290;-2.474;2022-12-19T00:57:44;9.85;;;2.30;;
60492;SDS011;46341;51.290;-2.474;2022-12-19T01:00:11;11.25;;;2.95;;
60492;SDS011;46341;51.290;-2.474;2022-12-19T01:02:38;10.45;;;2.60;;
60492;SDS011;46341;51.290;-2.474;2022-12-19T01:05:04;13.23;;;2.75;;
60492;SDS011;46341;51.290;-2.474;2022-12-19T01:07:31;11.25;;;2.22;;
60492;SDS011;46341;51.290;-2.474;2022-12-19T01:09:57;6.80;;;1.30;;
60492;SDS011;46341;51.290;-2.474;2022-12-19T01:12:24;6.43;;;1.40;;
60492;SDS011;46341;51.290;-2.474;2022-12-19T01:15:09;7.22;;;1.60;;
60492;SDS011;46341;51.290;-2.474;2022-12-19T01:17:35;11.48;;;1.92;;
60492;SDS011;46341;51.290;-2.474;2022-12-19T01:20:09;9.00;;;2.00;;
60492;SDS011;46341;51.290;-2.474;2022-12-19T01:22:35;12.25;;;2.22;;
60492;SDS011;46341;51.290;-2.474;2022-12-19T01:25:02;9.15;;;2.72;;
60492;SDS011;46341;51.290;-2.474;2022-12-19T01:27:28;9.98;;;2.17;;
60492;SDS011;46341;51.290;-2.474;2022-12-19T01:29:54;12.70;;;2.30;;
60492;SDS011;46341;51.290;-2.474;2022-12-19T01:32:21;11.75;;;2.20;;
60492;SDS011;46341;51.290;-2.474;2022-12-19T01:34:48;8.82;;;2.03;;
60492;SDS011;46341;51.290;-2.474;2022-12-19T01:37:17;10.82;;;2.33;;
60492;SDS011;46341;51.290;-2.474;2022-12-19T01:39:44;7.28;;;2.13;;
60492;SDS011;46341;51.290;-2.474;2022-12-19T01:42:15;7.87;;;2.20;;
60492;SDS011;46341;51.290;-2.474;2022-12-19T01:45:01;7.90;;;1.98;;
60492;SDS011;46341;51.290;-2.474;2022-12-19T01:47:28;7.70;;;1.98;;
60492;SDS011;46341;51.290;-2.474;2022-12-19T01:49:54;6.10;;;1.75;;
60492;SDS011;46341;51.290;-2.474;2022-12-19T01:52:21;10.67;;;2.53;;
60492;SDS011;46341;51.290;-2.474;2022-12-19T01:54:49;9.38;;;1.85;;
60492;SDS011;46341;51.290;-2.474;2022-12-19T01:57:15;9.77;;;2.17;;
60492;SDS011;46341;51.290;-2.474;2022-12-19T01:59:44;7.63;;;1.73;;
60492;SDS011;46341;51.290;-2.474;2022-12-19T02:02:22;9.57;;;2.13;;
60492;SDS011;46341;51.290;-2.474;2022-12-19T02:04:50;8.63;;;2.00;;
60492;SDS011;46341;51.290;-2.474;2022-12-19T02:07:17;12.15;;;2.60;;
60492;SDS011;46341;51.290;-2.474;2022-12-19T02:12:11;14.02;;;2.75;;
60492;SDS011;46341;51.290;-2.474;2022-12-19T02:14:38;11.95;;;2.97;;
60492;SDS011;46341;51.290;-2.474;2022-12-19T02:17:07;13.13;;;3.10;;
60492;SDS011;46341;51.290;-2.474;2022-12-19T02:31:09;17.77;;;4.72;;
60492;SDS011;46341;51.290;-2.474;2022-12-19T02:33:52;20.73;;;4.80;;
60492;SDS011;46341;51.290;-2.474;2022-12-19T02:36:25;26.55;;;5.88;;
60492;SDS011;46341;51.290;-2.474;2022-12-19T02:38:59;25.55;;;6.78;;
60492;SDS011;46341;51.290;-2.474;2022-12-19T02:41:31;29.38;;;5.60;;
60492;SDS011;46341;51.290;-2.474;2022-12-19T02:44:09;28.05;;;6.38;;
60492;SDS011;46341;51.290;-2.474;2022-12-19T02:46:40;35.55;;;6.68;;
60492;SDS011;46341;51.290;-2.474;2022-12-19T02:49:08;30.90;;;6.03;;
60492;SDS011;46341;51.290;-2.474;2022-12-19T02:51:36;30.00;;;6.35;;
60492;SDS011;46341;51.290;-2.474;2022-12-19T02:54:02;27.05;;;6.30;;
60492;SDS011;46341;51.290;-2.474;2022-12-19T02:56:47;29.08;;;5.97;;
60492;SDS011;46341;51.290;-2.474;2022-12-19T02:59:31;32.97;;;6.53;;
60492;SDS011;46341;51.290;-2.474;2022-12-19T03:04:33;21.63;;;4.82;;
60492;SDS011;46341;51.290;-2.474;2022-12-19T03:13:00;17.93;;;3.20;;
60492;SDS011;46341;51.290;-2.474;2022-12-19T03:15:28;14.13;;;2.80;;
60492;SDS011;46341;51.290;-2.474;2022-12-19T03:17:55;10.95;;;2.42;;
60492;SDS011;46341;51.290;-2.474;2022-12-19T03:20:27;9.40;;;2.17;;
60492;SDS011;46341;51.290;-2.474;2022-12-19T03:22:55;8.30;;;1.80;;
60492;SDS011;46341;51.290;-2.474;2022-12-19T03:25:21;8.20;;;1.85;;
60492;SDS011;46341;51.290;-2.474;2022-12-19T03:27:49;9.07;;;1.65;;
60492;SDS011;46341;51.290;-2.474;2022-12-19T03:32:43;8.20;;;1.60;;
60492;SDS011;46341;51.290;-2.474;2022-12-19T03:37:39;10.73;;;2.38;;
60492;SDS011;46341;51.290;-2.474;2022-12-19T03:40:07;5.45;;;1.40;;
60492;SDS011;46341;51.290;-2.474;2022-12-19T03:42:36;5.15;;;1.60;;
60492;SDS011;46341;51.290;-2.474;2022-12-19T03:45:23;9.02;;;1.90;;
60492;SDS011;46341;51.290;-2.474;2022-12-19T03:47:54;8.10;;;2.28;;
60492;SDS011;46341;51.290;-2.474;2022-12-19T03:50:22;9.13;;;2.00;;
60492;SDS011;46341;51.290;-2.474;2022-12-19T03:55:26;8.15;;;2.35;;
60492;SDS011;46341;51.290;-2.474;2022-12-19T03:57:58;10.68;;;2.85;;
60492;SDS011;46341;51.290;-2.474;2022-12-19T04:00:27;10.55;;;2.42;;
60492;SDS011;46341;51.290;-2.474;2022-12-19T04:05:22;9.25;;;2.38;;
60492;SDS011;46341;51.290;-2.474;2022-12-19T04:07:49;9.52;;;2.20;;
60492;SDS011;46341;51.290;-2.474;2022-12-19T04:10:18;8.38;;;2.40;;
60492;SDS011;46341;51.290;-2.474;2022-12-19T04:12:58;7.25;;;2.67;;
60492;SDS011;46341;51.290;-2.474;2022-12-19T04:15:32;9.70;;;2.85;;
60492;SDS011;46341;51.290;-2.474;2022-12-19T04:17:59;4.85;;;2.08;;
60492;SDS011;46341;51.290;-2.474;2022-12-19T04:20:29;10.73;;;2.70;;
60492;SDS011;46341;51.290;-2.474;2022-12-19T04:22:58;8.63;;;1.92;;
60492;SDS011;46341;51.290;-2.474;2022-12-19T04:25:26;7.38;;;2.10;;
60492;SDS011;46341;51.290;-2.474;2022-12-19T04:27:56;5.72;;;1.50;;
60492;SDS011;46341;51.290;-2.474;2022-12-19T04:30:24;7.03;;;2.00;;
60492;SDS011;46341;51.290;-2.474;2022-12-19T04:32:51;6.05;;;1.58;;
60492;SDS011;46341;51.290;-2.474;2022-12-19T04:35:17;7.57;;;1.63;;
60492;SDS011;46341;51.290;-2.474;2022-12-19T04:37:43;5.78;;;1.50;;
60492;SDS011;46341;51.290;-2.474;2022-12-19T04:40:10;6.50;;;1.83;;
60492;SDS011;46341;51.290;-2.474;2022-12-19T04:42:37;7.43;;;2.10;;
60492;SDS011;46341;51.290;-2.474;2022-12-19T04:45:04;8.43;;;1.83;;
60492;SDS011;46341;51.290;-2.474;2022-12-19T04:47:31;6.63;;;2.13;;
60492;SDS011;46341;51.290;-2.474;2022-12-19T04:49:57;8.25;;;1.70;;
60492;SDS011;46341;51.290;-2.474;2022-12-19T04:52:24;6.40;;;1.73;;
60492;SDS011;46341;51.290;-2.474;2022-12-19T04:54:50;6.75;;;2.00;;
60492;SDS011;46341;51.290;-2.474;2022-12-19T04:57:16;8.73;;;2.20;;
60492;SDS011;46341;51.290;-2.474;2022-12-19T04:59:43;6.97;;;2.20;;
60492;SDS011;46341;51.290;-2.474;2022-12-19T05:02:09;11.07;;;2.50;;
60492;SDS011;46341;51.290;-2.474;2022-12-19T05:04:36;11.30;;;2.45;;
60492;SDS011;46341;51.290;-2.474;2022-12-19T05:07:02;13.75;;;2.70;;
60492;SDS011;46341;51.290;-2.474;2022-12-19T05:09:28;13.85;;;3.42;;
60492;SDS011;46341;51.290;-2.474;2022-12-19T05:11:55;14.88;;;3.30;;
60492;SDS011;46341;51.290;-2.474;2022-12-19T05:14:21;14.52;;;3.85;;
60492;SDS011;46341;51.290;-2.474;2022-12-19T05:16:48;11.27;;;3.70;;
60492;SDS011;46341;51.290;-2.474;2022-12-19T05:19:14;12.63;;;3.63;;
60492;SDS011;46341;51.290;-2.474;2022-12-19T05:21:40;14.02;;;3.88;;
60492;SDS011;46341;51.290;-2.474;2022-12-19T05:24:07;13.30;;;3.47;;
60492;SDS011;46341;51.290;-2.474;2022-12-19T05:26:33;19.02;;;4.47;;
60492;SDS011;46341;51.290;-2.474;2022-12-19T05:29:00;12.75;;;3.28;;
60492;SDS011;46341;51.290;-2.474;2022-12-19T05:31:26;13.75;;;3.60;;
60492;SDS011;46341;51.290;-2.474;2022-12-19T05:33:53;16.63;;;3.83;;
60492;SDS011;46341;51.290;-2.474;2022-12-19T05:36:19;13.00;;;3.33;;
60492;SDS011;46341;51.290;-2.474;2022-12-19T05:38:45;15.45;;;4.15;;
60492;SDS011;46341;51.290;-2.474;2022-12-19T05:41:13;13.18;;;3.53;;
60492;SDS011;46341;51.290;-2.474;2022-12-19T05:43:40;17.40;;;3.42;;
60492;SDS011;46341;51.290;-2.474;2022-12-19T05:46:06;13.55;;;4.40;;
60492;SDS011;46341;51.290;-2.474;2022-12-19T05:48:33;16.50;;;3.63;;
60492;SDS011;46341;51.290;-2.474;2022-12-19T05:51:00;17.48;;;3.90;;
60492;SDS011;46341;51.290;-2.474;2022-12-19T05:53:27;18.80;;;3.95;;
60492;SDS011;46341;51.290;-2.474;2022-12-19T05:56:09;15.15;;;3.67;;
60492;SDS011;46341;51.290;-2.474;2022-12-19T05:58:36;13.52;;;3.65;;
60492;SDS011;46341;51.290;-2.474;2022-12-19T06:01:10;13.65;;;3.22;;
60492;SDS011;46341;51.290;-2.474;2022-12-19T06:03:37;16.58;;;4.38;;
60492;SDS011;46341;51.290;-2.474;2022-12-19T06:06:04;14.60;;;3.75;;
60492;SDS011;46341;51.290;-2.474;2022-12-19T06:11:01;14.98;;;3.05;;
60492;SDS011;46341;51.290;-2.474;2022-12-19T06:13:28;10.20;;;2.65;;
60492;SDS011;46341;51.290;-2.474;2022-12-19T06:15:58;13.30;;;3.25;;
60492;SDS011;46341;51.290;-2.474;2022-12-19T06:18:25;15.13;;;3.00;;
60492;SDS011;46341;51.290;-2.474;2022-12-19T06:21:11;11.02;;;2.50;;
60492;SDS011;46341;51.290;-2.474;2022-12-19T06:23:37;10.18;;;2.72;;
60492;SDS011;46341;51.290;-2.474;2022-12-19T06:26:04;9.77;;;3.60;;
60492;SDS011;46341;51.290;-2.474;2022-12-19T06:28:31;14.55;;;3.03;;
60492;SDS011;46341;51.290;-2.474;2022-12-19T06:30:58;8.52;;;3.30;;
60492;SDS011;46341;51.290;-2.474;2022-12-19T06:33:25;13.00;;;3.28;;
60492;SDS011;46341;51.290;-2.474;2022-12-19T06:35:58;12.32;;;2.80;;
60492;SDS011;46341;51.290;-2.474;2022-12-19T06:38:25;11.18;;;2.63;;
60492;SDS011;46341;51.290;-2.474;2022-12-19T06:40:52;11.07;;;3.47;;
60492;SDS011;46341;51.290;-2.474;2022-12-19T06:43:37;13.15;;;3.20;;
60492;SDS011;46341;51.290;-2.474;2022-12-19T06:46:03;10.73;;;3.20;;
60492;SDS011;46341;51.290;-2.474;2022-12-19T06:48:30;20.40;;;4.53;;
60492;SDS011;46341;51.290;-2.474;2022-12-19T06:50:57;11.15;;;3.78;;
60492;SDS011;46341;51.290;-2.474;2022-12-19T06:53:23;14.52;;;3.53;;
60492;SDS011;46341;51.290;-2.474;2022-12-19T06:55:51;16.60;;;3.85;;
60492;SDS011;46341;51.290;-2.474;2022-12-19T06:58:18;14.07;;;3.67;;
60492;SDS011;46341;51.290;-2.474;2022-12-19T07:00:49;12.52;;;3.20;;
60492;SDS011;46341;51.290;-2.474;2022-12-19T07:03:20;13.30;;;3.65;;
60492;SDS011;46341;51.290;-2.474;2022-12-19T07:05:47;13.35;;;3.30;;
60492;SDS011;46341;51.290;-2.474;2022-12-19T07:08:14;14.75;;;4.10;;
60492;SDS011;46341;51.290;-2.474;2022-12-19T07:10:40;18.08;;;3.88;;
60492;SDS011;46341;51.290;-2.474;2022-12-19T07:13:07;18.02;;;3.70;;
60492;SDS011;46341;51.290;-2.474;2022-12-19T07:15:33;14.05;;;3.42;;
60492;SDS011;46341;51.290;-2.474;2022-12-19T07:18:00;18.13;;;3.90;;
60492;SDS011;46341;51.290;-2.474;2022-12-19T07:20:27;14.25;;;3.55;;
60492;SDS011;46341;51.290;-2.474;2022-12-19T07:22:54;14.75;;;3.53;;
60492;SDS011;46341;51.290;-2.474;2022-12-19T07:25:20;13.73;;;3.65;;
60492;SDS011;46341;51.290;-2.474;2022-12-19T07:27:46;22.73;;;4.22;;
60492;SDS011;46341;51.290;-2.474;2022-12-19T07:30:13;12.73;;;3.70;;
60492;SDS011;46341;51.290;-2.474;2022-12-19T07:32:39;16.73;;;3.88;;
60492;SDS011;46341;51.290;-2.474;2022-12-19T07:35:06;19.33;;;3.97;;
60492;SDS011;46341;51.290;-2.474;2022-12-19T07:37:32;11.40;;;3.25;;
60492;SDS011;46341;51.290;-2.474;2022-12-19T07:39:59;16.05;;;3.35;;
60492;SDS011;46341;51.290;-2.474;2022-12-19T07:42:25;14.30;;;3.25;;
60492;SDS011;46341;51.290;-2.474;2022-12-19T07:44:57;12.73;;;3.70;;
60492;SDS011;46341;51.290;-2.474;2022-12-19T07:47:24;15.15;;;3.58;;
60492;SDS011;46341;51.290;-2.474;2022-12-19T07:49:52;10.35;;;3.22;;
60492;SDS011;46341;51.290;-2.474;2022-12-19T07:52:19;15.98;;;3.25;;
60492;SDS011;46341;51.290;-2.474;2022-12-19T07:54:45;10.55;;;2.72;;
60492;SDS011;46341;51.290;-2.474;2022-12-19T07:57:11;19.42;;;3.97;;
60492;SDS011;46341;51.290;-2.474;2022-12-19T07:59:38;11.35;;;3.25;;
60492;SDS011;46341;51.290;-2.474;2022-12-19T08:02:04;11.10;;;3.83;;
60492;SDS011;46341;51.290;-2.474;2022-12-19T08:04:33;19.75;;;4.30;;
60492;SDS011;46341;51.290;-2.474;2022-12-19T08:06:59;20.42;;;4.65;;
60492;SDS011;46341;51.290;-2.474;2022-12-19T08:09:27;20.45;;;5.22;;
60492;SDS011;46341;51.290;-2.474;2022-12-19T08:11:54;19.75;;;5.20;;
60492;SDS011;46341;51.290;-2.474;2022-12-19T08:14:20;20.70;;;5.25;;
60492;SDS011;46341;51.290;-2.474;2022-12-19T08:16:47;17.40;;;4.15;;
60492;SDS011;46341;51.290;-2.474;2022-12-19T08:19:33;16.63;;;4.18;;
60492;SDS011;46341;51.290;-2.474;2022-12-19T08:21:59;18.08;;;4.18;;
60492;SDS011;46341;51.290;-2.474;2022-12-19T08:24:26;19.42;;;4.38;;
60492;SDS011;46341;51.290;-2.474;2022-12-19T08:26:52;13.90;;;3.60;;
60492;SDS011;46341;51.290;-2.474;2022-12-19T08:29:18;11.95;;;3.17;;
60492;SDS011;46341;51.290;-2.474;2022-12-19T08:31:45;12.18;;;2.55;;
60492;SDS011;46341;51.290;-2.474;2022-12-19T08:34:11;10.63;;;2.85;;
60492;SDS011;46341;51.290;-2.474;2022-12-19T08:36:38;11.90;;;3.45;;
60492;SDS011;46341;51.290;-2.474;2022-12-19T08:39:04;10.95;;;3.20;;
60492;SDS011;46341;51.290;-2.474;2022-12-19T08:41:31;11.63;;;3.40;;
60492;SDS011;46341;51.290;-2.474;2022-12-19T08:43:57;13.32;;;3.15;;
60492;SDS011;46341;51.290;-2.474;2022-12-19T08:46:25;11.88;;;3.28;;
60492;SDS011;46341;51.290;-2.474;2022-12-19T08:48:51;11.52;;;2.85;;
60492;SDS011;46341;51.290;-2.474;2022-12-19T08:51:18;5.50;;;2.13;;
60492;SDS011;46341;51.290;-2.474;2022-12-19T08:53:45;7.30;;;2.22;;
60492;SDS011;46341;51.290;-2.474;2022-12-19T08:56:15;7.35;;;2.17;;
60492;SDS011;46341;51.290;-2.474;2022-12-19T08:58:42;10.07;;;2.38;;
60492;SDS011;46341;51.290;-2.474;2022-12-19T09:01:10;5.25;;;1.60;;
60492;SDS011;46341;51.290;-2.474;2022-12-19T09:03:38;6.43;;;1.77;;
60492;SDS011;46341;51.290;-2.474;2022-12-19T09:06:25;9.70;;;1.93;;
60492;SDS011;46341;51.290;-2.474;2022-12-19T09:08:52;5.78;;;1.55;;
60492;SDS011;46341;51.290;-2.474;2022-12-19T09:11:25;6.65;;;1.45;;
60492;SDS011;46341;51.290;-2.474;2022-12-19T09:13:51;5.47;;;1.45;;
60492;SDS011;46341;51.290;-2.474;2022-12-19T09:16:21;4.28;;;1.42;;
60492;SDS011;46341;51.290;-2.474;2022-12-19T09:18:48;3.67;;;1.55;;
60492;SDS011;46341;51.290;-2.474;2022-12-19T09:21:15;3.45;;;1.08;;
60492;SDS011;46341;51.290;-2.474;2022-12-19T09:23:42;2.55;;;1.10;;
60492;SDS011;46341;51.290;-2.474;2022-12-19T09:26:11;3.90;;;0.80;;
60492;SDS011;46341;51.290;-2.474;2022-12-19T09:28:38;4.30;;;1.00;;
60492;SDS011;46341;51.290;-2.474;2022-12-19T09:31:12;5.35;;;1.25;;
60492;SDS011;46341;51.290;-2.474;2022-12-19T09:33:39;6.82;;;1.92;;
60492;SDS011;46341;51.290;-2.474;2022-12-19T09:36:27;4.63;;;1.85;;
60492;SDS011;46341;51.290;-2.474;2022-12-19T09:38:54;7.45;;;2.00;;
60492;SDS011;46341;51.290;-2.474;2022-12-19T09:49:08;12.75;;;2.42;;
60492;SDS011;46341;51.290;-2.474;2022-12-19T09:56:56;12.20;;;2.60;;
60492;SDS011;46341;51.290;-2.474;2022-12-19T09:59:28;12.07;;;3.00;;
60492;SDS011;46341;51.290;-2.474;2022-12-19T10:04:37;10.80;;;2.45;;
60492;SDS011;46341;51.290;-2.474;2022-12-19T10:07:10;10.63;;;2.55;;
60492;SDS011;46341;51.290;-2.474;2022-12-19T10:09:57;15.15;;;3.47;;
60492;SDS011;46341;51.290;-2.474;2022-12-19T10:20:28;14.48;;;3.17;;
60492;SDS011;46341;51.290;-2.474;2022-12-19T10:36:21;17.88;;;3.47;;
60492;SDS011;46341;51.290;-2.474;2022-12-19T10:41:33;12.90;;;3.25;;
60492;SDS011;46341;51.290;-2.474;2022-12-19T10:44:09;21.00;;;3.55;;
60492;SDS011;46341;51.290;-2.474;2022-12-19T10:46:37;21.30;;;4.55;;
60492;SDS011;46341;51.290;-2.474;2022-12-19T10:51:36;15.55;;;3.38;;
60492;SDS011;46341;51.290;-2.474;2022-12-19T10:54:03;18.13;;;3.40;;
60492;SDS011;46341;51.290;-2.474;2022-12-19T10:56:30;15.75;;;4.03;;
60492;SDS011;46341;51.290;-2.474;2022-12-19T10:59:02;18.05;;;4.15;;
60492;SDS011;46341;51.290;-2.474;2022-12-19T11:01:37;16.70;;;3.28;;
60492;SDS011;46341;51.290;-2.474;2022-12-19T11:11:47;15.68;;;3.30;;
60492;SDS011;46341;51.290;-2.474;2022-12-19T11:14:35;13.93;;;3.42;;
60492;SDS011;46341;51.290;-2.474;2022-12-19T11:20:12;16.15;;;3.38;;
60492;SDS011;46341;51.290;-2.474;2022-12-19T11:22:59;17.65;;;4.22;;
60492;SDS011;46341;51.290;-2.474;2022-12-19T11:25:51;14.83;;;3.07;;
60492;SDS011;46341;51.290;-2.474;2022-12-19T11:28:38;14.77;;;3.15;;
60492;SDS011;46341;51.290;-2.474;2022-12-19T11:31:24;13.90;;;3.10;;
60492;SDS011;46341;51.290;-2.474;2022-12-19T11:34:14;10.30;;;2.38;;
60492;SDS011;46341;51.290;-2.474;2022-12-19T11:39:39;16.75;;;2.88;;
60492;SDS011;46341;51.290;-2.474;2022-12-19T11:44:33;13.40;;;2.55;;
60492;SDS011;46341;51.290;-2.474;2022-12-19T11:48:05;13.80;;;3.08;;
60492;SDS011;46341;51.290;-2.474;2022-12-19T11:49:58;9.05;;;2.55;;
60492;SDS011;46341;51.290;-2.474;2022-12-19T11:58:03;8.18;;;2.42;;
60492;SDS011;46341;51.290;-2.474;2022-12-19T12:00:29;12.88;;;2.67;;
60492;SDS011;46341;51.290;-2.474;2022-12-19T12:05:44;8.05;;;2.20;;
60492;SDS011;46341;51.290;-2.474;2022-12-19T12:14:13;6.28;;;1.92;;
60492;SDS011;46341;51.290;-2.474;2022-12-19T12:17:03;7.70;;;2.15;;
60492;SDS011;46341;51.290;-2.474;2022-12-19T12:19:58;7.40;;;1.55;;
60492;SDS011;46341;51.290;-2.474;2022-12-19T12:25:44;9.38;;;2.60;;
60492;SDS011;46341;51.290;-2.474;2022-12-19T12:31:41;10.07;;;1.92;;
60492;SDS011;46341;51.290;-2.474;2022-12-19T12:37:46;8.88;;;2.40;;
60492;SDS011;46341;51.290;-2.474;2022-12-19T12:45:32;11.30;;;3.20;;
60492;SDS011;46341;51.290;-2.474;2022-12-19T12:48:00;12.10;;;3.08;;
60492;SDS011;46341;51.290;-2.474;2022-12-19T12:50:26;13.20;;;2.60;;
60492;SDS011;46341;51.290;-2.474;2022-12-19T12:52:57;8.00;;;2.38;;
60492;SDS011;46341;51.290;-2.474;2022-12-19T12:57:54;10.93;;;2.42;;
60492;SDS011;46341;51.290;-2.474;2022-12-19T13:00:27;11.65;;;2.42;;
60492;SDS011;46341;51.290;-2.474;2022-12-19T13:11:00;14.60;;;3.03;;
60492;SDS011;46341;51.290;-2.474;2022-12-19T13:13:46;12.07;;;2.97;;
60492;SDS011;46341;51.290;-2.474;2022-12-19T13:16:59;19.63;;;4.30;;
60492;SDS011;46341;51.290;-2.474;2022-12-19T13:19:12;20.17;;;3.73;;
60492;SDS011;46341;51.290;-2.474;2022-12-19T13:32:20;21.95;;;3.83;;
60492;SDS011;46341;51.290;-2.474;2022-12-19T13:34:50;17.80;;;3.42;;
60492;SDS011;46341;51.290;-2.474;2022-12-19T13:40:27;17.42;;;3.40;;
60492;SDS011;46341;51.290;-2.474;2022-12-19T13:45:47;20.35;;;3.88;;
60492;SDS011;46341;51.290;-2.474;2022-12-19T13:48:15;23.63;;;4.28;;
60492;SDS011;46341;51.290;-2.474;2022-12-19T13:50:45;19.90;;;4.05;;
60492;SDS011;46341;51.290;-2.474;2022-12-19T13:53:15;15.75;;;3.28;;
60492;SDS011;46341;51.290;-2.474;2022-12-19T13:55:42;13.05;;;2.70;;
60492;SDS011;46341;51.290;-2.474;2022-12-19T13:58:20;15.23;;;3.58;;
60492;SDS011;46341;51.290;-2.474;2022-12-19T14:00:55;14.38;;;2.88;;
60492;SDS011;46341;51.290;-2.474;2022-12-19T14:03:33;14.48;;;3.30;;
60492;SDS011;46341;51.290;-2.474;2022-12-19T14:08:56;20.58;;;3.13;;
60492;SDS011;46341;51.290;-2.474;2022-12-19T14:11:44;15.15;;;3.33;;
60492;SDS011;46341;51.290;-2.474;2022-12-19T14:14:30;14.85;;;3.88;;
60492;SDS011;46341;51.290;-2.474;2022-12-19T14:17:35;19.83;;;3.85;;
60492;SDS011;46341;51.290;-2.474;2022-12-19T14:20:01;17.92;;;3.85;;
60492;SDS011;46341;51.290;-2.474;2022-12-19T14:22:56;18.80;;;3.72;;
60492;SDS011;46341;51.290;-2.474;2022-12-19T14:25:32;21.40;;;4.68;;
60492;SDS011;46341;51.290;-2.474;2022-12-19T14:28:21;23.08;;;3.95;;
60492;SDS011;46341;51.290;-2.474;2022-12-19T14:30:59;19.90;;;4.28;;
60492;SDS011;46341;51.290;-2.474;2022-12-19T14:33:30;17.40;;;3.65;;
60492;SDS011;46341;51.290;-2.474;2022-12-19T14:36:21;20.38;;;4.28;;
60492;SDS011;46341;51.290;-2.474;2022-12-19T14:38:52;18.08;;;3.92;;
60492;SDS011;46341;51.290;-2.474;2022-12-19T14:41:40;14.68;;;3.58;;
60492;SDS011;46341;51.290;-2.474;2022-12-19T14:47:35;11.25;;;2.80;;
60492;SDS011;46341;51.290;-2.474;2022-12-19T14:50:26;15.07;;;3.60;;
60492;SDS011;46341;51.290;-2.474;2022-12-19T14:53:16;11.63;;;2.80;;
60492;SDS011;46341;51.290;-2.474;2022-12-19T14:56:04;13.70;;;2.42;;
60492;SDS011;46341;51.290;-2.474;2022-12-19T14:58:52;13.43;;;2.90;;
60492;SDS011;46341;51.290;-2.474;2022-12-19T15:01:24;13.25;;;3.20;;
60492;SDS011;46341;51.290;-2.474;2022-12-19T15:06:41;13.07;;;3.45;;
60492;SDS011;46341;51.290;-2.474;2022-12-19T15:09:28;15.32;;;3.33;;
60492;SDS011;46341;51.290;-2.474;2022-12-19T15:12:21;12.00;;;2.97;;
60492;SDS011;46341;51.290;-2.474;2022-12-19T15:15:37;17.80;;;3.65;;
60492;SDS011;46341;51.290;-2.474;2022-12-19T15:18:22;15.38;;;3.25;;
60492;SDS011;46341;51.290;-2.474;2022-12-19T15:20:49;17.63;;;3.60;;
60492;SDS011;46341;51.290;-2.474;2022-12-19T15:23:16;22.83;;;4.15;;
60492;SDS011;46341;51.290;-2.474;2022-12-19T15:25:47;26.85;;;4.70;;
60492;SDS011;46341;51.290;-2.474;2022-12-19T15:31:03;24.60;;;4.47;;
60492;SDS011;46341;51.290;-2.474;2022-12-19T15:33:30;31.02;;;5.60;;
60492;SDS011;46341;51.290;-2.474;2022-12-19T15:35:57;26.45;;;4.63;;
60492;SDS011;46341;51.290;-2.474;2022-12-19T15:38:23;27.52;;;5.45;;
60492;SDS011;46341;51.290;-2.474;2022-12-19T15:40:50;31.45;;;5.68;;
60492;SDS011;46341;51.290;-2.474;2022-12-19T15:43:17;31.33;;;5.82;;
60492;SDS011;46341;51.290;-2.474;2022-12-19T15:46:04;27.75;;;5.93;;
60492;SDS011;46341;51.290;-2.474;2022-12-19T15:48:31;31.75;;;5.90;;
60492;SDS011;46341;51.290;-2.474;2022-12-19T15:50:59;36.92;;;5.68;;
60492;SDS011;46341;51.290;-2.474;2022-12-19T15:53:27;33.17;;;6.90;;
60492;SDS011;46341;51.290;-2.474;2022-12-19T15:56:08;25.83;;;5.88;;
60492;SDS011;46341;51.290;-2.474;2022-12-19T15:58:39;19.50;;;4.97;;
60492;SDS011;46341;51.290;-2.474;2022-12-19T16:01:06;19.00;;;4.10;;
60492;SDS011;46341;51.290;-2.474;2022-12-19T16:03:32;16.77;;;4.13;;
60492;SDS011;46341;51.290;-2.474;2022-12-19T16:05:59;23.63;;;4.50;;
60492;SDS011;46341;51.290;-2.474;2022-12-19T16:08:26;25.15;;;4.57;;
60492;SDS011;46341;51.290;-2.474;2022-12-19T16:10:53;17.90;;;4.13;;
60492;SDS011;46341;51.290;-2.474;2022-12-19T16:13:31;17.92;;;3.70;;
60492;SDS011;46341;51.290;-2.474;2022-12-19T16:15:59;15.77;;;3.38;;
60492;SDS011;46341;51.290;-2.474;2022-12-19T16:18:26;14.48;;;3.00;;
60492;SDS011;46341;51.290;-2.474;2022-12-19T16:20:52;18.90;;;4.18;;
60492;SDS011;46341;51.290;-2.474;2022-12-19T16:23:19;20.13;;;4.40;;
60492;SDS011;46341;51.290;-2.474;2022-12-19T16:25:48;18.73;;;4.03;;
60492;SDS011;46341;51.290;-2.474;2022-12-19T16:28:17;16.58;;;3.60;;
60492;SDS011;46341;51.290;-2.474;2022-12-19T16:30:44;16.23;;;4.03;;
60492;SDS011;46341;51.290;-2.474;2022-12-19T16:33:18;20.05;;;4.05;;
60492;SDS011;46341;51.290;-2.474;2022-12-19T16:35:45;18.13;;;3.05;;
60492;SDS011;46341;51.290;-2.474;2022-12-19T16:38:30;16.30;;;3.60;;
60492;SDS011;46341;51.290;-2.474;2022-12-19T16:40:58;15.13;;;2.90;;
60492;SDS011;46341;51.290;-2.474;2022-12-19T16:43:27;15.55;;;4.00;;
60492;SDS011;46341;51.290;-2.474;2022-12-19T16:45:54;16.80;;;3.45;;
60492;SDS011;46341;51.290;-2.474;2022-12-19T16:48:27;12.43;;;2.85;;
60492;SDS011;46341;51.290;-2.474;2022-12-19T16:50:55;15.90;;;3.90;;
60492;SDS011;46341;51.290;-2.474;2022-12-19T16:53:22;14.60;;;3.65;;
60492;SDS011;46341;51.290;-2.474;2022-12-19T16:55:48;14.20;;;2.80;;
60492;SDS011;46341;51.290;-2.474;2022-12-19T16:58:19;17.17;;;3.17;;
60492;SDS011;46341;51.290;-2.474;2022-12-19T17:00:46;11.43;;;3.20;;
60492;SDS011;46341;51.290;-2.474;2022-12-19T17:05:54;10.00;;;2.63;;
60492;SDS011;46341;51.290;-2.474;2022-12-19T17:08:20;17.50;;;3.53;;
60492;SDS011;46341;51.290;-2.474;2022-12-19T17:10:47;17.40;;;3.20;;
60492;SDS011;46341;51.290;-2.474;2022-12-19T17:13:14;15.13;;;3.40;;
60492;SDS011;46341;51.290;-2.474;2022-12-19T17:15:42;20.65;;;3.63;;
60492;SDS011;46341;51.290;-2.474;2022-12-19T17:18:10;13.80;;;3.60;;
60492;SDS011;46341;51.290;-2.474;2022-12-19T17:20:38;15.50;;;3.15;;
60492;SDS011;46341;51.290;-2.474;2022-12-19T17:23:10;19.15;;;3.70;;
60492;SDS011;46341;51.290;-2.474;2022-12-19T17:25:37;18.15;;;3.40;;
60492;SDS011;46341;51.290;-2.474;2022-12-19T17:28:03;21.98;;;4.15;;
60492;SDS011;46341;51.290;-2.474;2022-12-19T17:30:30;16.92;;;3.70;;
60492;SDS011;46341;51.290;-2.474;2022-12-19T17:32:56;14.93;;;3.28;;